Time;durP1;ratioP1;P1;durP2;ratioP2;P2;SDS_P1;SDS_P2;PMS_P1;PMS_P2;Temp;Humidity;BMP_temperature;BMP_pressure;BME280_temperature;BME280_humidity;BME280_pressure;Samples;Min_cycle;Max_cycle;Signal;HPM_P1;HPM_P2
2023/01/29 00:02:15;;;;;;;14.35;7.95;;;4.70;99.90;;;;;;4998586;28;20574;-78
2023/01/29 00:04:41;;;;;;;6.68;5.07;;;4.70;99.90;;;;;;4966823;28;20130;-79
2023/01/29 00:07:07;;;;;;;16.77;6.97;;;4.70;99.90;;;;;;4967707;28;20042;-76
2023/01/29 00:09:33;;;;;;;17.50;7.78;;;4.70;99.90;;;;;;4967117;28;20046;-78
2023/01/29 00:11:58;;;;;;;10.05;5.68;;;4.70;99.90;;;;;;4966232;28;20074;-79
2023/01/29 00:14:26;;;;;;;8.00;6.68;;;4.70;99.90;;;;;;4966923;28;20416;-76
2023/01/29 00:16:51;;;;;;;8.32;5.45;;;4.70;99.90;;;;;;4981942;28;20047;-77
2023/01/29 00:19:18;;;;;;;11.75;7.50;;;4.70;99.90;;;;;;4987293;28;20042;-78
2023/01/29 00:21:44;;;;;;;5.30;4.70;;;4.80;99.90;;;;;;4984350;28;20557;-77
2023/01/29 00:24:10;;;;;;;10.48;6.82;;;4.70;99.90;;;;;;4987048;28;20054;-78
2023/01/29 00:26:37;;;;;;;16.23;6.85;;;4.80;99.90;;;;;;4986709;28;20062;-76
2023/01/29 00:29:03;;;;;;;7.50;6.32;;;4.70;99.90;;;;;;4986753;28;20046;-78
2023/01/29 00:31:29;;;;;;;6.32;4.95;;;4.80;99.90;;;;;;4986672;28;20053;-79
2023/01/29 00:33:55;;;;;;;8.23;5.30;;;4.70;99.90;;;;;;4986613;28;20490;-78
2023/01/29 00:36:21;;;;;;;8.00;6.03;;;4.80;99.90;;;;;;4985824;28;20092;-78
2023/01/29 00:38:57;;;;;;;7.18;5.70;;;4.80;99.90;;;;;;4986485;28;20117;-78
2023/01/29 00:46:53;;;;;;;8.65;5.10;;;4.80;99.90;;;;;;4998635;28;20058;-75
2023/01/29 00:49:19;;;;;;;8.48;6.60;;;4.80;99.90;;;;;;4966197;28;20043;-78
2023/01/29 00:52:22;;;;;;;9.25;5.78;;;4.80;99.90;;;;;;4966197;28;20035;-78
2023/01/29 00:54:30;;;;;;;8.20;5.13;;;4.80;99.90;;;;;;4965295;28;20515;-78
2023/01/29 00:56:55;;;;;;;7.40;6.72;;;4.80;99.90;;;;;;4967112;28;20144;-76
2023/01/29 00:59:21;;;;;;;6.22;5.63;;;4.80;99.90;;;;;;4966738;28;20177;-78
2023/01/29 01:04:30;;;;;;;8.25;5.72;;;4.80;99.90;;;;;;4966027;28;20135;-76
2023/01/29 01:06:56;;;;;;;19.67;5.28;;;4.80;99.90;;;;;;4966851;28;20071;-79
2023/01/29 01:12:06;;;;;;;6.38;4.72;;;4.80;99.90;;;;;;4966904;28;20495;-77
2023/01/29 01:14:34;;;;;;;13.25;8.07;;;4.80;99.90;;;;;;4966479;28;20059;-78
2023/01/29 01:17:01;;;;;;;8.60;7.45;;;4.80;99.90;;;;;;4973221;28;20494;-78
2023/01/29 01:19:26;;;;;;;8.60;6.40;;;4.80;99.90;;;;;;4965443;28;20058;-78
2023/01/29 01:21:52;;;;;;;7.43;6.20;;;4.80;99.90;;;;;;4966280;28;20523;-78
2023/01/29 01:24:19;;;;;;;10.43;8.38;;;4.80;99.90;;;;;;4967556;28;20070;-79
2023/01/29 01:26:44;;;;;;;11.75;7.95;;;4.80;99.90;;;;;;4966618;28;20100;-78
2023/01/29 01:29:10;;;;;;;13.15;9.35;;;4.80;99.90;;;;;;4970398;28;20715;-79
2023/01/29 01:31:36;;;;;;;13.63;7.70;;;4.80;99.90;;;;;;4970626;28;20035;-75
2023/01/29 01:34:03;;;;;;;15.80;6.57;;;4.80;99.90;;;;;;4970449;28;20440;-78
2023/01/29 01:36:28;;;;;;;13.68;8.48;;;4.80;99.90;;;;;;4968246;28;20411;-77
2023/01/29 01:38:54;;;;;;;13.43;8.32;;;4.80;99.90;;;;;;4970498;28;20050;-78
2023/01/29 01:41:21;;;;;;;12.70;8.10;;;4.80;99.90;;;;;;4970663;28;20035;-78
2023/01/29 01:43:56;;;;;;;13.60;7.95;;;4.90;99.90;;;;;;5002043;28;20042;-79
2023/01/29 01:46:23;;;;;;;12.38;8.23;;;4.80;99.90;;;;;;4969765;28;20058;-78
2023/01/29 01:49:00;;;;;;;12.50;8.95;;;4.80;99.90;;;;;;4970590;28;20078;-78
2023/01/29 01:51:29;;;;;;;12.13;7.93;;;4.80;99.90;;;;;;4969090;28;20046;-75
2023/01/29 01:54:04;;;;;;;9.52;8.23;;;4.90;99.90;;;;;;4970389;28;20047;-78
2023/01/29 01:56:39;;;;;;;21.55;9.35;;;4.80;99.90;;;;;;4969643;28;20108;-78
2023/01/29 01:59:12;;;;;;;12.55;8.63;;;4.80;99.90;;;;;;4969951;28;20110;-78
2023/01/29 02:01:41;;;;;;;;;;;4.90;99.90;;;;;;4969965;28;20058;-77
2023/01/29 02:09:50;;;;;;;11.52;8.32;;;4.90;99.90;;;;;;5062233;23;20056;-76
2023/01/29 02:12:16;;;;;;;11.68;8.43;;;4.90;99.90;;;;;;4989684;28;20153;-76
2023/01/29 02:14:42;;;;;;;7.55;6.75;;;4.90;99.90;;;;;;4989038;28;20042;-76
2023/01/29 02:17:14;;;;;;;9.90;7.93;;;4.80;99.90;;;;;;5004935;28;20485;-76
2023/01/29 02:20:31;;;;;;;16.30;9.05;;;4.80;99.90;;;;;;5007656;28;20779;-76
2023/01/29 02:23:26;;;;;;;9.18;7.70;;;4.80;99.90;;;;;;4974925;28;20141;-76
2023/01/29 02:25:51;;;;;;;8.73;6.93;;;4.80;99.90;;;;;;5008584;28;20068;-77
2023/01/29 02:28:35;;;;;;;9.18;7.53;;;4.80;99.90;;;;;;5008593;28;20049;-75
2023/01/29 02:31:19;;;;;;;11.57;8.55;;;4.80;99.90;;;;;;5008501;28;20097;-75
2023/01/29 02:33:55;;;;;;;13.63;10.48;;;4.80;99.90;;;;;;5008516;28;20050;-76
2023/01/29 02:36:38;;;;;;;13.70;9.63;;;4.80;99.90;;;;;;5007272;28;20038;-75
2023/01/29 02:39:23;;;;;;;12.52;9.15;;;4.80;99.90;;;;;;5006535;28;20060;-76
2023/01/29 02:41:57;;;;;;;11.80;9.35;;;4.80;99.90;;;;;;5008805;28;20046;-79
2023/01/29 02:44:47;;;;;;;13.80;8.45;;;4.80;99.90;;;;;;5008251;28;20109;-78
2023/01/29 02:47:23;;;;;;;12.85;9.48;;;4.80;99.90;;;;;;5004601;28;20054;-78
2023/01/29 02:49:54;;;;;;;13.63;10.23;;;4.80;99.90;;;;;;5006263;28;20046;-75
2023/01/29 02:52:25;;;;;;;12.82;9.18;;;4.80;99.90;;;;;;5007186;28;20046;-75
2023/01/29 02:55:18;;;;;;;13.98;8.35;;;4.80;99.90;;;;;;5007983;28;20077;-78
2023/01/29 02:57:45;;;;;;;7.78;6.97;;;4.80;99.90;;;;;;5007092;28;20105;-78
2023/01/29 03:00:18;;;;;;;10.90;9.52;;;4.80;99.90;;;;;;5008234;28;20056;-77
2023/01/29 03:02:43;;;;;;;;;;;4.80;99.90;;;;;;5006945;28;20042;-78
2023/01/29 03:05:16;;;;;;;13.77;10.07;;;4.80;99.90;;;;;;5007096;28;20052;-78
2023/01/29 03:07:49;;;;;;;12.73;8.65;;;4.80;99.90;;;;;;5007683;28;20046;-78
2023/01/29 03:10:27;;;;;;;9.32;8.38;;;4.80;99.90;;;;;;5007212;28;20049;-78
2023/01/29 03:12:59;;;;;;;10.13;7.70;;;4.80;99.90;;;;;;5007844;28;20049;-78
2023/01/29 03:15:37;;;;;;;14.25;12.10;;;4.80;99.90;;;;;;5003841;28;20038;-78
2023/01/29 03:18:12;;;;;;;16.35;10.75;;;4.70;99.90;;;;;;4988181;28;20046;-77
2023/01/29 03:20:47;;;;;;;14.50;10.70;;;4.80;99.90;;;;;;4986836;28;20494;-78
2023/01/29 03:32:02;;;;;;;14.98;11.30;;;4.80;99.90;;;;;;5007790;28;20093;-78
2023/01/29 03:34:37;;;;;;;16.15;11.10;;;4.80;99.90;;;;;;5006193;28;20042;-76
2023/01/29 03:37:18;;;;;;;18.83;11.45;;;4.80;99.90;;;;;;5007455;28;20053;-77
2023/01/29 03:39:43;;;;;;;16.13;12.50;;;4.80;99.90;;;;;;5007134;28;20049;-79
2023/01/29 03:42:24;;;;;;;15.65;11.73;;;4.80;99.90;;;;;;5007519;28;20406;-79
2023/01/29 03:44:59;;;;;;;12.57;9.88;;;4.80;99.90;;;;;;5005983;28;20532;-79
2023/01/29 03:47:42;;;;;;;20.98;11.43;;;4.80;99.90;;;;;;5005605;28;20100;-79
2023/01/29 03:50:35;;;;;;;13.10;11.50;;;4.80;99.90;;;;;;5005668;28;20042;-78
2023/01/29 03:53:18;;;;;;;;;;;4.80;99.90;;;;;;5007536;28;20128;-79
2023/01/29 03:56:09;;;;;;;11.95;8.13;;;4.80;99.90;;;;;;5006780;28;19922;-78
2023/01/29 03:58:48;;;;;;;12.73;9.73;;;4.70;99.90;;;;;;5005125;28;20054;-78
2023/01/29 04:01:21;;;;;;;22.10;13.63;;;4.80;99.90;;;;;;5005832;28;20053;-77
2023/01/29 04:04:16;;;;;;;17.02;10.32;;;4.80;99.90;;;;;;5006217;28;20061;-79
2023/01/29 04:06:46;;;;;;;13.57;9.10;;;4.80;99.90;;;;;;5006120;28;20049;-79
2023/01/29 04:09:22;;;;;;;15.25;9.98;;;4.80;99.90;;;;;;5006676;28;20168;-79
2023/01/29 04:11:55;;;;;;;12.52;9.05;;;4.80;99.90;;;;;;5007335;28;20054;-79
2023/01/29 04:14:21;;;;;;;14.10;10.40;;;4.80;99.90;;;;;;5004855;28;20077;-77
2023/01/29 04:16:52;;;;;;;21.88;7.78;;;4.80;99.90;;;;;;4975492;28;20046;-78
2023/01/29 04:19:17;;;;;;;16.65;9.15;;;4.80;99.90;;;;;;4985318;28;20058;-78
2023/01/29 04:21:47;;;;;;;12.02;10.07;;;4.80;99.90;;;;;;4994546;28;20049;-77
2023/01/29 04:24:13;;;;;;;14.18;9.48;;;4.80;99.90;;;;;;5006798;28;20045;-79
2023/01/29 04:26:45;;;;;;;14.35;9.95;;;4.80;99.90;;;;;;5006580;28;20088;-78
2023/01/29 04:29:19;;;;;;;14.25;10.43;;;4.80;99.90;;;;;;5006396;28;20559;-78
2023/01/29 04:31:48;;;;;;;15.07;10.18;;;4.80;99.90;;;;;;5006516;28;20045;-78
2023/01/29 04:34:26;;;;;;;13.07;9.02;;;4.80;99.90;;;;;;5004172;28;20046;-77
2023/01/29 04:37:06;;;;;;;12.85;9.07;;;4.80;99.90;;;;;;4988856;28;20045;-78
2023/01/29 04:39:44;;;;;;;12.82;9.82;;;4.90;99.90;;;;;;5005006;28;20085;-78
2023/01/29 04:42:25;;;;;;;16.88;9.60;;;4.80;99.90;;;;;;5006624;28;20050;-76
2023/01/29 04:45:00;;;;;;;12.45;9.23;;;4.90;99.90;;;;;;5005039;28;20093;-78
2023/01/29 04:47:31;;;;;;;11.93;8.73;;;4.90;99.90;;;;;;5006084;28;20050;-76
2023/01/29 04:50:42;;;;;;;14.63;8.60;;;4.90;99.90;;;;;;4988095;28;20406;-78
2023/01/29 04:53:11;;;;;;;14.43;8.27;;;4.90;99.90;;;;;;5004890;28;20132;-77
2023/01/29 04:55:47;;;;;;;14.63;10.73;;;4.90;99.90;;;;;;5005179;28;20165;-78
2023/01/29 04:58:32;;;;;;;12.07;8.73;;;4.90;99.90;;;;;;5006247;28;20049;-78
2023/01/29 05:00:59;;;;;;;21.17;10.07;;;4.90;99.90;;;;;;5005214;28;20387;-77
2023/01/29 05:03:26;;;;;;;9.98;7.93;;;4.90;99.90;;;;;;5010029;28;20120;-78
2023/01/29 05:05:54;;;;;;;10.77;8.25;;;4.90;99.90;;;;;;5009525;28;20121;-79
2023/01/29 05:08:23;;;;;;;11.43;9.38;;;4.90;99.90;;;;;;5009269;28;20078;-78
2023/01/29 05:10:51;;;;;;;14.80;9.60;;;4.90;99.90;;;;;;5008950;28;20125;-78
2023/01/29 05:13:20;;;;;;;13.35;8.82;;;4.90;99.90;;;;;;5010305;28;20056;-78
2023/01/29 05:16:01;;;;;;;12.80;7.50;;;4.80;99.90;;;;;;5002688;28;20041;-78
2023/01/29 05:18:28;;;;;;;10.27;7.60;;;4.90;99.90;;;;;;5005178;28;20501;-75
2023/01/29 05:20:56;;;;;;;13.82;8.43;;;4.90;99.90;;;;;;4991497;28;20128;-78
2023/01/29 05:23:22;;;;;;;14.48;8.57;;;4.90;99.90;;;;;;5009560;28;20452;-78
2023/01/29 05:25:50;;;;;;;12.18;10.10;;;4.90;99.90;;;;;;5009963;28;20061;-79
2023/01/29 05:28:16;;;;;;;10.85;7.72;;;4.90;99.90;;;;;;5010300;28;20048;-79
2023/01/29 05:30:46;;;;;;;15.38;10.10;;;4.90;99.90;;;;;;5009424;28;20042;-78
2023/01/29 05:33:17;;;;;;;15.60;9.70;;;4.90;99.90;;;;;;5009635;28;20057;-78
2023/01/29 05:35:43;;;;;;;11.68;9.45;;;4.90;99.90;;;;;;5008594;28;20042;-77
2023/01/29 05:38:09;;;;;;;17.88;9.77;;;4.90;99.90;;;;;;5008388;28;20057;-78
2023/01/29 05:40:35;;;;;;;14.85;9.45;;;4.80;99.90;;;;;;5009323;28;20049;-76
2023/01/29 05:43:01;;;;;;;14.15;8.48;;;4.80;99.90;;;;;;5008332;28;20038;-78
2023/01/29 05:45:27;;;;;;;13.00;9.63;;;4.80;99.90;;;;;;5009011;28;20049;-77
2023/01/29 05:47:57;;;;;;;16.98;9.65;;;4.80;99.90;;;;;;5008180;28;20135;-77
2023/01/29 05:50:24;;;;;;;14.00;9.45;;;4.80;99.90;;;;;;5007943;28;20133;-78
2023/01/29 05:52:54;;;;;;;14.65;9.93;;;4.80;99.90;;;;;;5009604;28;20250;-78
2023/01/29 05:55:20;;;;;;;13.27;9.85;;;4.80;99.90;;;;;;5009668;28;20049;-78
2023/01/29 05:57:45;;;;;;;11.38;9.30;;;4.80;99.90;;;;;;5009561;28;20499;-76
2023/01/29 06:00:12;;;;;;;16.60;9.00;;;4.80;99.90;;;;;;5009098;28;20120;-78
2023/01/29 06:02:37;;;;;;;16.73;8.98;;;4.80;99.90;;;;;;5008752;28;20034;-78
2023/01/29 06:05:03;;;;;;;11.85;9.48;;;4.80;99.90;;;;;;5007971;28;20054;-79
2023/01/29 06:07:29;;;;;;;15.60;9.65;;;4.80;99.90;;;;;;5008736;28;20130;-78
2023/01/29 06:09:54;;;;;;;17.83;11.80;;;4.70;99.90;;;;;;5008876;28;20049;-77
2023/01/29 06:12:20;;;;;;;16.00;11.65;;;4.70;99.90;;;;;;5009435;28;20069;-78
2023/01/29 06:14:46;;;;;;;20.52;10.73;;;4.70;99.90;;;;;;5008327;28;20513;-77
2023/01/29 06:17:11;;;;;;;15.93;12.10;;;4.70;99.90;;;;;;5008667;28;20054;-77
2023/01/29 06:19:38;;;;;;;14.52;12.70;;;4.70;99.90;;;;;;5007438;28;20494;-77
2023/01/29 06:22:03;;;;;;;19.88;14.50;;;4.70;99.90;;;;;;5007416;28;20553;-78
2023/01/29 06:24:29;;;;;;;16.35;13.00;;;4.70;99.90;;;;;;5008493;28;20120;-78
2023/01/29 06:26:54;;;;;;;23.63;13.98;;;4.70;99.90;;;;;;5008693;28;20044;-78
2023/01/29 06:29:20;;;;;;;20.75;13.80;;;4.70;99.90;;;;;;5006867;28;20096;-78
2023/01/29 06:31:45;;;;;;;17.38;13.65;;;4.70;99.90;;;;;;4994019;28;20492;-77
2023/01/29 06:34:11;;;;;;;24.00;14.43;;;4.60;99.90;;;;;;5007128;28;20104;-78
2023/01/29 06:36:37;;;;;;;17.58;13.60;;;4.70;99.90;;;;;;5007978;28;20076;-76
2023/01/29 06:39:03;;;;;;;14.18;12.35;;;4.70;99.90;;;;;;5008411;28;20517;-76
2023/01/29 06:41:28;;;;;;;24.45;16.33;;;4.70;99.90;;;;;;5008032;28;20092;-79
2023/01/29 06:43:54;;;;;;;19.33;15.38;;;4.60;99.90;;;;;;5008427;28;20046;-77
2023/01/29 06:46:20;;;;;;;21.02;15.07;;;4.60;99.90;;;;;;5008571;28;20522;-77
2023/01/29 06:48:45;;;;;;;20.92;15.32;;;4.70;99.90;;;;;;5007548;28;20069;-78
2023/01/29 06:51:11;;;;;;;16.52;13.50;;;4.70;99.90;;;;;;5008002;28;20045;-78
2023/01/29 06:53:38;;;;;;;17.88;12.55;;;4.60;99.90;;;;;;5007815;28;20038;-77
2023/01/29 06:56:04;;;;;;;22.73;13.90;;;4.70;99.90;;;;;;5007772;28;20552;-78
2023/01/29 06:58:29;;;;;;;27.40;13.98;;;4.60;99.90;;;;;;5007857;28;20046;-78
2023/01/29 07:01:03;;;;;;;22.05;14.13;;;4.60;99.90;;;;;;5008063;28;20041;-78
2023/01/29 07:03:28;;;;;;;20.55;13.82;;;4.70;99.90;;;;;;5007839;28;20046;-78
2023/01/29 07:05:54;;;;;;;19.58;14.20;;;4.60;99.90;;;;;;5007090;28;20457;-78
2023/01/29 07:08:21;;;;;;;19.33;13.70;;;4.60;99.90;;;;;;5008335;28;20050;-78
2023/01/29 07:10:47;;;;;;;16.85;14.93;;;4.70;99.90;;;;;;5007810;28;20053;-76
2023/01/29 07:13:13;;;;;;;23.17;15.63;;;4.60;99.90;;;;;;5007754;28;20422;-78
2023/01/29 07:15:39;;;;;;;21.75;13.68;;;4.60;99.90;;;;;;5001817;28;20034;-77
2023/01/29 07:18:10;;;;;;;18.70;15.27;;;4.60;99.90;;;;;;4987769;28;20490;-78
2023/01/29 07:20:40;;;;;;;23.20;16.27;;;4.60;99.90;;;;;;4986956;28;20046;-78
2023/01/29 07:23:07;;;;;;;18.02;14.95;;;4.60;99.90;;;;;;4987930;28;20487;-77
2023/01/29 07:25:33;;;;;;;21.00;13.93;;;4.60;99.90;;;;;;4985361;28;20049;-78
2023/01/29 07:28:00;;;;;;;19.55;16.55;;;4.60;99.90;;;;;;4988063;28;20042;-77
2023/01/29 07:30:26;;;;;;;27.25;18.63;;;4.60;99.90;;;;;;4987780;28;20045;-76
2023/01/29 07:32:51;;;;;;;31.88;19.40;;;4.60;99.90;;;;;;4986400;28;20054;-77
2023/01/29 07:35:17;;;;;;;21.60;15.98;;;4.60;99.90;;;;;;4987338;28;20042;-76
2023/01/29 07:37:43;;;;;;;25.58;18.42;;;4.60;99.90;;;;;;4987471;28;20050;-76
2023/01/29 07:40:10;;;;;;;25.38;17.60;;;4.60;99.90;;;;;;5004156;28;20069;-77
2023/01/29 07:42:38;;;;;;;23.75;17.23;;;4.60;99.90;;;;;;5006848;28;20046;-76
2023/01/29 07:45:05;;;;;;;28.33;19.00;;;4.60;99.90;;;;;;5005786;28;20046;-75
2023/01/29 07:47:31;;;;;;;41.90;19.85;;;4.60;99.90;;;;;;5001500;28;20052;-77
2023/01/29 07:49:56;;;;;;;25.70;19.20;;;4.60;99.90;;;;;;5001605;28;20045;-75
2023/01/29 07:52:22;;;;;;;29.65;21.58;;;4.60;99.90;;;;;;5002371;28;20073;-75
2023/01/29 07:54:47;;;;;;;25.17;21.73;;;4.60;99.90;;;;;;5006435;28;20080;-74
2023/01/29 07:57:13;;;;;;;31.00;19.05;;;4.60;99.90;;;;;;5006078;28;20505;-75
2023/01/29 07:59:38;;;;;;;28.13;19.77;;;4.60;99.90;;;;;;5006882;28;20406;-74
2023/01/29 08:02:04;;;;;;;28.88;20.40;;;4.60;99.90;;;;;;5004374;28;20033;-75
2023/01/29 08:04:29;;;;;;;31.27;20.42;;;4.60;99.90;;;;;;5004165;28;20057;-75
2023/01/29 08:06:55;;;;;;;31.48;22.92;;;4.60;99.90;;;;;;5006092;28;20445;-75
2023/01/29 08:09:20;;;;;;;28.60;18.85;;;4.60;99.90;;;;;;5006417;28;20079;-75
2023/01/29 08:11:46;;;;;;;32.40;21.20;;;4.60;99.90;;;;;;5007221;28;20053;-75
2023/01/29 08:14:11;;;;;;;31.98;20.40;;;4.70;99.90;;;;;;5004588;28;20485;-75
2023/01/29 08:16:37;;;;;;;25.63;19.92;;;4.70;99.90;;;;;;5005660;28;20408;-76
2023/01/29 08:19:03;;;;;;;28.27;21.38;;;4.70;99.90;;;;;;5004269;28;20070;-79
2023/01/29 08:21:28;;;;;;;31.00;20.83;;;4.70;99.90;;;;;;5005986;28;20038;-76
2023/01/29 08:23:54;;;;;;;32.95;21.60;;;4.70;99.90;;;;;;4998189;28;20030;-75
2023/01/29 08:26:19;;;;;;;33.90;20.05;;;4.70;99.90;;;;;;5005393;28;20046;-75
2023/01/29 08:28:45;;;;;;;28.75;19.17;;;4.80;99.90;;;;;;5005664;28;20045;-75
2023/01/29 08:31:15;;;;;;;27.50;20.70;;;4.70;99.90;;;;;;5005418;28;20081;-75
2023/01/29 08:33:41;;;;;;;25.17;20.30;;;4.70;99.90;;;;;;5004307;28;20048;-75
2023/01/29 08:36:07;;;;;;;34.78;21.90;;;4.70;99.90;;;;;;5001038;28;20042;-75
2023/01/29 08:38:33;;;;;;;28.42;19.35;;;4.70;99.90;;;;;;5003862;28;20078;-76
2023/01/29 08:40:59;;;;;;;32.83;21.77;;;4.80;99.90;;;;;;5000140;28;20139;-76
2023/01/29 08:43:24;;;;;;;34.58;22.83;;;4.80;99.90;;;;;;4986060;28;20146;-76
2023/01/29 08:45:50;;;;;;;30.70;21.77;;;4.80;99.90;;;;;;4986591;28;20057;-75
2023/01/29 08:48:16;;;;;;;31.05;20.73;;;4.80;99.90;;;;;;4968540;28;20490;-77
2023/01/29 08:50:41;;;;;;;27.20;20.48;;;4.80;99.90;;;;;;4999232;28;20193;-76
2023/01/29 08:53:08;;;;;;;32.75;18.52;;;4.80;99.90;;;;;;5005768;28;20038;-76
2023/01/29 08:55:40;;;;;;;28.80;19.58;;;4.80;99.90;;;;;;5005377;28;20056;-76
2023/01/29 08:58:07;;;;;;;31.90;19.77;;;4.80;99.90;;;;;;5004375;28;20510;-75
2023/01/29 09:00:34;;;;;;;36.30;22.05;;;4.80;99.90;;;;;;5004708;28;20052;-75
2023/01/29 09:02:59;;;;;;;28.85;20.10;;;4.80;99.90;;;;;;5002851;28;20046;-76
2023/01/29 09:05:26;;;;;;;32.80;20.88;;;4.80;99.90;;;;;;5004615;28;20050;-76
2023/01/29 09:07:52;;;;;;;43.42;23.23;;;4.80;99.90;;;;;;5005798;28;20038;-76
2023/01/29 09:10:18;;;;;;;30.38;18.38;;;4.80;99.90;;;;;;5004955;28;20054;-76
2023/01/29 09:12:44;;;;;;;24.67;18.23;;;4.80;99.90;;;;;;5003949;28;20050;-75
2023/01/29 09:15:10;;;;;;;34.45;21.85;;;4.90;99.90;;;;;;5003307;28;20072;-76
2023/01/29 09:17:35;;;;;;;39.53;22.77;;;4.80;99.90;;;;;;4999234;28;20042;-76
2023/01/29 09:20:01;;;;;;;30.63;21.52;;;4.90;99.90;;;;;;4997535;28;20038;-76
2023/01/29 09:22:27;;;;;;;36.42;21.20;;;4.90;99.90;;;;;;4994421;28;20908;-77
2023/01/29 09:24:53;;;;;;;33.13;21.63;;;4.90;99.90;;;;;;4992002;28;20068;-76
2023/01/29 09:27:18;;;;;;;40.38;21.17;;;4.90;99.90;;;;;;5004156;28;20058;-75
2023/01/29 09:29:44;;;;;;;31.75;18.13;;;4.90;99.90;;;;;;5003955;28;20406;-75
2023/01/29 09:32:09;;;;;;;31.80;19.90;;;4.90;99.90;;;;;;5005003;28;20698;-76
2023/01/29 09:34:35;;;;;;;33.97;20.77;;;4.90;99.90;;;;;;5002878;28;20053;-77
2023/01/29 09:37:01;;;;;;;29.40;16.90;;;5.00;99.90;;;;;;5004517;28;20117;-75
2023/01/29 09:39:27;;;;;;;27.80;19.63;;;5.00;99.90;;;;;;5005003;28;20041;-76
2023/01/29 09:41:59;;;;;;;32.20;19.23;;;5.00;99.90;;;;;;5004183;28;20100;-75
2023/01/29 09:44:51;;;;;;;32.55;20.77;;;5.00;99.90;;;;;;5004211;28;20049;-75
2023/01/29 09:47:19;;;;;;;29.60;20.08;;;5.00;99.90;;;;;;5004403;28;20513;-76
2023/01/29 09:49:58;;;;;;;37.60;22.45;;;5.00;99.90;;;;;;5005137;28;20052;-75
2023/01/29 09:52:34;;;;;;;29.55;21.40;;;5.00;99.90;;;;;;5000064;28;20056;-76
2023/01/29 09:55:13;;;;;;;28.67;21.02;;;5.10;99.90;;;;;;4995154;28;20053;-76
2023/01/29 09:57:47;;;;;;;28.23;19.10;;;5.10;99.90;;;;;;5000149;28;20055;-75
2023/01/29 10:00:23;;;;;;;29.38;19.38;;;5.10;99.90;;;;;;4988884;28;20042;-76
2023/01/29 10:03:06;;;;;;;34.97;19.73;;;5.10;99.90;;;;;;4999013;28;20089;-76
2023/01/29 10:05:36;;;;;;;;;;;5.10;99.90;;;;;;4991707;28;20053;-75
2023/01/29 10:08:09;;;;;;;31.20;19.42;;;5.10;99.90;;;;;;4995455;28;20337;-76
2023/01/29 10:10:47;;;;;;;31.52;18.85;;;5.10;99.90;;;;;;5007105;28;20437;-75
2023/01/29 10:13:24;;;;;;;31.23;15.55;;;5.10;99.90;;;;;;4998665;28;20058;-76
2023/01/29 10:16:08;;;;;;;24.90;15.27;;;5.10;99.90;;;;;;5001495;28;20092;-75
2023/01/29 10:18:44;;;;;;;24.90;17.10;;;5.10;99.90;;;;;;4993547;28;20129;-76
2023/01/29 10:21:43;;;;;;;32.00;17.45;;;5.20;99.90;;;;;;4998079;28;20054;-75
2023/01/29 10:24:36;;;;;;;30.48;16.38;;;5.20;99.90;;;;;;5007925;28;20129;-75
2023/01/29 10:27:08;;;;;;;31.08;16.60;;;5.20;99.90;;;;;;5000097;28;20046;-75
2023/01/29 10:29:34;;;;;;;25.48;14.32;;;5.20;99.90;;;;;;4988515;28;20046;-75
2023/01/29 10:32:04;;;;;;;19.63;14.80;;;5.20;99.90;;;;;;5002609;28;20042;-75
2023/01/29 10:34:38;;;;;;;27.95;15.43;;;5.30;99.90;;;;;;4997065;28;20117;-76
2023/01/29 10:37:23;;;;;;;23.73;16.35;;;5.30;99.90;;;;;;5007754;28;20096;-75
2023/01/29 10:39:49;;;;;;;21.90;17.58;;;5.30;99.90;;;;;;5000725;28;20057;-75
2023/01/29 10:42:42;;;;;;;30.33;18.75;;;5.30;99.90;;;;;;5000184;28;20048;-75
2023/01/29 10:45:20;;;;;;;31.38;19.15;;;5.30;99.90;;;;;;4992105;28;20146;-76
2023/01/29 10:48:13;;;;;;;30.88;19.20;;;5.30;99.90;;;;;;4994110;28;20402;-75
2023/01/29 10:50:50;;;;;;;24.23;16.23;;;5.30;99.90;;;;;;5003692;28;20628;-75
2023/01/29 10:53:40;;;;;;;24.02;16.83;;;5.30;99.90;;;;;;5004203;28;20050;-76
2023/01/29 10:56:18;;;;;;;27.52;17.75;;;5.30;99.90;;;;;;5003871;28;20454;-75
2023/01/29 10:58:58;;;;;;;23.67;15.77;;;5.40;99.90;;;;;;4999328;28;20054;-75
2023/01/29 11:01:25;;;;;;;30.20;18.02;;;5.30;99.90;;;;;;5006771;28;20409;-75
2023/01/29 11:04:00;;;;;;;30.75;16.42;;;5.40;99.90;;;;;;5006227;28;20042;-76
2023/01/29 11:06:31;;;;;;;24.35;15.10;;;5.40;99.90;;;;;;5004077;28;20453;-75
2023/01/29 11:09:28;;;;;;;20.15;13.93;;;5.30;99.90;;;;;;5006357;28;20402;-75
2023/01/29 11:12:21;;;;;;;20.58;15.15;;;5.40;99.90;;;;;;4977008;28;20086;-75
2023/01/29 11:15:05;;;;;;;24.90;15.38;;;5.40;99.90;;;;;;4987578;28;20038;-75
2023/01/29 11:17:31;;;;;;;28.25;16.38;;;5.40;99.90;;;;;;4987818;28;20089;-75
2023/01/29 11:19:56;;;;;;;20.95;14.98;;;5.50;99.90;;;;;;4987095;28;20078;-76
2023/01/29 11:22:23;;;;;;;28.70;16.60;;;5.50;99.90;;;;;;4988889;28;20522;-75
2023/01/29 11:25:17;;;;;;;25.55;16.05;;;5.50;99.90;;;;;;4994790;28;20080;-76
2023/01/29 11:27:46;;;;;;;22.92;15.05;;;5.50;99.90;;;;;;5002696;28;20752;-75
2023/01/29 11:30:34;;;;;;;20.60;14.55;;;5.50;99.90;;;;;;4986905;28;20540;-76
2023/01/29 11:33:07;;;;;;;22.70;14.88;;;5.60;99.90;;;;;;4988596;28;20048;-76
2023/01/29 11:35:35;;;;;;;26.13;15.13;;;5.60;99.90;;;;;;4987345;28;20100;-76
2023/01/29 11:38:18;;;;;;;30.55;14.57;;;5.60;99.90;;;;;;4987436;28;20069;-76
2023/01/29 11:40:44;;;;;;;30.05;16.67;;;5.60;99.90;;;;;;4992587;28;20049;-76
2023/01/29 11:43:29;;;;;;;21.30;13.43;;;5.60;99.90;;;;;;5006798;28;20130;-76
2023/01/29 11:46:13;;;;;;;24.08;14.32;;;5.60;99.90;;;;;;4990073;28;20071;-76
2023/01/29 11:48:50;;;;;;;17.80;12.85;;;5.70;99.90;;;;;;5006601;28;20053;-76
2023/01/29 11:51:26;;;;;;;18.75;13.00;;;5.70;99.90;;;;;;5007119;28;20054;-76
2023/01/29 11:53:59;;;;;;;15.88;11.52;;;5.70;99.90;;;;;;5006721;28;20120;-76
2023/01/29 11:56:38;;;;;;;17.60;11.68;;;5.70;99.90;;;;;;5005610;28;20057;-76
2023/01/29 11:59:04;;;;;;;17.45;11.23;;;5.70;99.90;;;;;;5004068;28;20125;-76
2023/01/29 12:01:37;;;;;;;17.63;10.52;;;5.80;99.90;;;;;;5004943;28;20056;-76
2023/01/29 12:04:26;;;;;;;13.40;9.43;;;5.80;99.90;;;;;;4996836;28;20572;-79
2023/01/29 12:06:53;;;;;;;15.68;11.50;;;5.80;99.90;;;;;;4996633;28;20108;-78
2023/01/29 12:09:23;;;;;;;21.00;10.60;;;5.80;99.90;;;;;;5005610;28;20058;-79
2023/01/29 12:11:48;;;;;;;13.73;9.63;;;5.80;99.90;;;;;;4998402;28;20042;-78
2023/01/29 12:14:35;;;;;;;23.70;10.15;;;5.80;99.90;;;;;;4997968;28;20049;-79
2023/01/29 12:17:32;;;;;;;17.30;9.40;;;5.80;99.90;;;;;;5013063;28;20045;-75
2023/01/29 12:20:07;;;;;;;10.85;7.18;;;5.80;99.90;;;;;;4977098;28;20062;-76
2023/01/29 12:22:56;;;;;;;13.10;8.40;;;5.90;99.90;;;;;;4990321;28;20046;-76
2023/01/29 12:25:38;;;;;;;16.30;10.23;;;5.90;99.90;;;;;;5004877;28;20120;-78
2023/01/29 12:29:04;;;;;;;15.80;8.57;;;5.90;99.90;;;;;;4997772;28;20391;-78
2023/01/29 12:31:52;;;;;;;19.88;7.93;;;5.80;99.90;;;;;;4955021;28;20058;-78
2023/01/29 12:34:33;;;;;;;10.90;7.32;;;5.90;99.90;;;;;;4983651;28;20078;-78
2023/01/29 12:37:08;;;;;;;11.82;7.10;;;5.80;99.90;;;;;;4985366;28;20062;-75
2023/01/29 12:39:35;;;;;;;11.73;5.32;;;5.90;99.90;;;;;;5004720;28;20049;-75
2023/01/29 12:42:19;;;;;;;16.63;7.75;;;5.90;99.90;;;;;;4994853;28;20038;-75
2023/01/29 12:44:47;;;;;;;12.98;6.65;;;5.90;99.90;;;;;;5006120;28;20049;-75
2023/01/29 12:47:32;;;;;;;14.07;8.25;;;5.90;99.90;;;;;;5006549;28;20046;-79
2023/01/29 12:50:06;;;;;;;16.05;6.95;;;5.90;99.90;;;;;;4999624;28;20364;-76
2023/01/29 12:52:32;;;;;;;11.88;7.10;;;5.90;99.90;;;;;;4988325;28;20050;-78
2023/01/29 12:55:20;;;;;;;9.30;7.05;;;5.90;99.90;;;;;;4999867;28;20049;-76
2023/01/29 12:58:08;;;;;;;11.32;8.13;;;5.90;99.90;;;;;;4996029;28;20356;-78
2023/01/29 13:00:38;;;;;;;13.15;7.57;;;5.90;99.90;;;;;;4997372;28;20054;-80
2023/01/29 13:03:32;;;;;;;9.05;6.07;;;6.00;99.90;;;;;;4977109;28;20038;-76
2023/01/29 13:06:21;;;;;;;7.10;4.43;;;6.00;99.90;;;;;;4998343;28;20049;-74
2023/01/29 13:08:58;;;;;;;7.50;4.63;;;6.00;99.90;;;;;;4999695;28;20533;-79
2023/01/29 13:11:37;;;;;;;7.63;5.43;;;6.00;99.90;;;;;;4996637;28;20041;-81
2023/01/29 13:14:23;;;;;;;7.05;4.07;;;6.10;99.90;;;;;;4995661;28;20125;-80
2023/01/29 13:16:54;;;;;;;7.97;4.45;;;6.10;99.90;;;;;;5000632;28;20043;-75
2023/01/29 13:19:23;;;;;;;12.30;4.18;;;6.10;99.90;;;;;;4997247;28;20430;-79
2023/01/29 13:21:50;;;;;;;6.18;3.38;;;6.10;99.90;;;;;;5005569;28;20078;-79
2023/01/29 13:24:19;;;;;;;4.57;3.78;;;6.10;99.90;;;;;;5000214;28;20038;-81
2023/01/29 13:26:47;;;;;;;9.45;3.90;;;6.10;99.90;;;;;;5009582;28;20046;-79
2023/01/29 13:29:24;;;;;;;7.85;4.28;;;6.20;99.90;;;;;;4993839;28;20479;-77
2023/01/29 13:31:52;;;;;;;4.90;3.80;;;6.10;99.90;;;;;;4997101;28;20112;-79
2023/01/29 13:34:31;;;;;;;6.10;2.95;;;6.10;99.90;;;;;;5002814;28;20042;-75